Terminal Aerodrome Forecast
Issued by NWS

Home | Current Version | Previous Version | Text Only | Print | Product List | Glossary On
Versions: 1 2 3 4 5 6 7 8 9 10 11 12 13 14 15 16 17 18 19 20 21 22 23 24 25
000
FTUS43 KMKX 110716 AAA
TAFENW
TAF AMD
KENW 110716Z 1107/1206 VRB03KT P6SM SCT025
     FM110900 VRB03KT P6SM FEW025 OVC080
     FM111300 20007KT 1 1/2SM -SN OVC025
     FM111600 20009KT P6SM VCSH OVC045
     FM112200 29005KT 2SM -SN OVC015
     FM120200 33010G20KT P6SM -SN BKN025
     FM120500 33015G27KT P6SM BKN030=

USA.gov is the U.S. government's official web portal to all federal, state and local government web resources and services.